Time;durP1;ratioP1;P1;durP2;ratioP2;P2;SDS_P1;SDS_P2;PMS_P1;PMS_P2;Temp;Humidity;BMP_temperature;BMP_pressure;BME280_temperature;BME280_humidity;BME280_pressure;Samples;Min_cycle;Max_cycle;Signal;HPM_P1;HPM_P2
2023/01/08 00:02:24;;;;;;;;;35.25;30.75;;;;;6.86;67.02;101720.03;146613;654;46020;-69
2023/01/08 00:05:13;;;;;;;;;34.25;29.75;;;;;6.73;69.87;101706.91;146701;565;45022;-70
2023/01/08 00:08:08;;;;;;;;;32.25;28.00;;;;;6.72;68.59;101717.97;146612;579;46016;-69
2023/01/08 00:11:04;;;;;;;;;29.75;27.25;;;;;6.67;68.12;101720.19;146622;591;45025;-69
2023/01/08 00:13:57;;;;;;;;;36.00;31.00;;;;;6.61;67.81;101714.53;146618;575;46916;-70
2023/01/08 00:16:50;;;;;;;;;35.50;31.25;;;;;6.56;67.53;101722.66;146623;637;46010;-69
2023/01/08 00:19:49;;;;;;;;;36.00;30.25;;;;;6.51;67.97;101726.50;146618;653;46013;-69
2023/01/08 00:22:35;;;;;;;;;35.25;30.75;;;;;6.38;70.61;101728.06;146708;572;46015;-68
2023/01/08 00:25:38;;;;;;;;;;;;;;;;;;;;;
2023/01/08 00:28:40;;;;;;;;;38.75;34.25;;;;;6.31;68.66;101728.31;146621;564;46020;-70
2023/01/08 00:31:44;;;;;;;;;31.75;28.00;;;;;6.29;68.76;101724.72;146614;638;46017;-68
2023/01/08 00:34:39;;;;;;;;;31.25;25.75;;;;;6.21;69.32;101716.34;146622;693;46020;-68
2023/01/08 00:37:37;;;;;;;;;25.25;21.50;;;;;6.16;69.56;101720.19;146617;617;46017;-67
2023/01/08 00:40:31;;;;;;;;;21.00;20.25;;;;;6.11;69.95;101721.50;146623;584;46010;-67
2023/01/08 00:43:28;;;;;;;;;23.00;20.00;;;;;6.12;69.50;101725.88;146618;608;46917;-68
2023/01/08 00:46:32;;;;;;;;;16.50;15.25;;;;;6.14;69.97;101726.91;146621;599;46021;-68
2023/01/08 00:49:36;;;;;;;;;15.75;13.75;;;;;6.10;69.51;101729.09;146617;583;46014;-69
2023/01/08 00:52:36;;;;;;;;;16.75;16.00;;;;;6.06;69.73;101733.06;146621;683;46020;-68
2023/01/08 00:55:42;;;;;;;;;;;;;;;;;;;;;
2023/01/08 00:58:35;;;;;;;;;16.75;14.25;;;;;5.99;69.57;101723.03;146621;634;46011;-68
2023/01/08 01:01:35;;;;;;;;;14.00;13.00;;;;;5.97;69.64;101729.72;146619;710;46014;-70
2023/01/08 01:04:29;;;;;;;;;17.25;14.00;;;;;5.96;69.54;101723.66;146624;595;46010;-69
2023/01/08 01:07:35;;;;;;;;;17.50;16.75;;;;;5.97;69.56;101724.56;146618;569;45017;-67
2023/01/08 01:10:30;;;;;;;;;21.75;18.00;;;;;5.99;69.66;101723.94;146621;686;46020;-68
2023/01/08 01:13:29;;;;;;;;;36.75;31.00;;;;;6.01;69.46;101727.53;146619;611;46013;-67
2023/01/08 01:16:26;;;;;;;;;23.00;21.75;;;;;5.99;69.28;101721.34;146623;577;46010;-66
2023/01/08 01:19:27;;;;;;;;;31.50;27.00;;;;;5.97;69.09;101716.84;146617;569;46012;-67
2023/01/08 01:22:22;;;;;;;;;44.25;34.50;;;;;5.93;69.06;101715.69;146621;564;46021;-67
2023/01/08 01:25:15;;;;;;;;;41.75;32.25;;;;;5.85;69.46;101713.19;146616;572;46024;-67
2023/01/08 01:28:10;;;;;;;;;43.50;37.25;;;;;5.83;69.09;101710.50;146621;642;45020;-68
2023/01/08 01:31:18;;;;;;;;;43.75;36.00;;;;;5.79;68.91;101723.84;146616;581;46017;-68
2023/01/08 01:34:11;;;;;;;;;38.75;33.00;;;;;5.72;68.71;101718.94;146621;578;45020;-67
2023/01/08 01:37:18;;;;;;;;;48.75;38.00;;;;;5.66;69.38;101711.59;146618;610;46917;-66
2023/01/08 01:40:24;;;;;;;;;54.75;43.50;;;;;5.59;69.23;101706.69;146620;724;46020;-65
2023/01/08 01:43:16;;;;;;;;;52.75;42.00;;;;;5.54;69.27;101710.53;146617;576;46013;-67
2023/01/08 01:46:38;;;;;;;;;62.50;48.25;;;;;5.48;68.75;101702.28;146620;687;46020;-66
2023/01/08 01:49:37;;;;;;;;;57.00;43.75;;;;;5.45;69.52;101700.38;146617;617;46016;-67
2023/01/08 01:52:54;;;;;;;;;48.00;38.75;;;;;5.48;69.31;101707.41;146619;563;46014;-67
2023/01/08 01:56:05;;;;;;;;;38.00;33.25;;;;;5.43;69.84;101701.00;146616;698;46016;-66
2023/01/08 01:59:12;;;;;;;;;38.00;32.50;;;;;5.38;69.15;101694.53;146621;639;46021;-67
2023/01/08 02:02:04;;;;;;;;;35.50;31.25;;;;;5.34;70.31;101703.66;146617;581;46016;-68
2023/01/08 02:05:17;;;;;;;;;42.25;31.50;;;;;5.33;69.74;101702.75;146623;626;46010;-67
2023/01/08 02:08:18;;;;;;;;;36.50;31.00;;;;;5.32;70.43;101689.75;146616;611;46012;-67
2023/01/08 02:15:37;;;;;;;;;42.00;33.25;;;;;5.22;70.56;101690.63;146616;654;46017;-67
2023/01/08 02:18:59;;;;;;;;;40.50;34.50;;;;;5.25;70.50;101701.19;146622;598;46010;-67
2023/01/08 02:22:05;;;;;;;;;38.50;31.00;;;;;5.20;72.18;101684.47;146710;565;46014;-67
2023/01/08 02:25:43;;;;;;;;;46.25;35.50;;;;;2.02;70.21;101134.50;146618;592;46013;-68
2023/01/08 02:29:07;;;;;;;;;46.00;34.75;;;;;5.20;70.63;101684.47;146619;598;46020;-66
2023/01/08 02:32:06;;;;;;;;;36.75;32.50;;;;;5.21;70.95;101683.69;146619;719;46012;-69
2023/01/08 02:35:01;;;;;;;;;35.25;30.50;;;;;5.20;70.94;101687.03;146621;614;46010;-69
2023/01/08 02:38:13;;;;;;;;;25.00;23.75;;;;;5.15;70.73;101682.25;146615;608;47017;-68
2023/01/08 02:41:15;;;;;;;;;25.00;22.25;;;;;5.12;71.10;101682.88;146618;623;46020;-68
2023/01/08 02:44:14;;;;;;;;;24.50;21.25;;;;;5.06;71.17;101688.38;146620;594;46016;-66
2023/01/08 02:47:19;;;;;;;;;30.75;26.00;;;;;5.07;72.13;101686.69;146623;677;46010;-67
2023/01/08 02:50:37;;;;;;;;;24.50;23.50;;;;;4.01;71.12;101497.50;146615;693;46016;-68
2023/01/08 02:53:39;;;;;;;;;24.25;19.50;;;;;5.09;71.62;101682.59;146621;575;46010;-68
2023/01/08 02:56:52;;;;;;;;;25.25;19.75;;;;;5.10;70.64;101679.25;146616;572;46014;-69
2023/01/08 02:59:53;;;;;;;;;20.50;18.75;;;;;5.11;70.79;101688.78;146620;655;46010;-71
2023/01/08 03:02:51;;;;;;;;;20.00;18.00;;;;;5.11;71.03;101681.09;146615;570;46017;-69
2023/01/08 03:05:50;;;;;;;;;28.00;22.25;;;;;5.08;71.22;101678.25;146622;625;46010;-69
2023/01/08 03:08:55;;;;;;;;;22.00;20.50;;;;;5.06;71.40;101688.38;146615;634;46017;-68
2023/01/08 03:12:23;;;;;;;;;22.50;20.75;;;;;5.06;71.36;101687.47;146623;628;46010;-65
2023/01/08 03:15:29;;;;;;;;;22.50;20.00;;;;;5.04;71.35;101683.84;146618;564;46013;-68
2023/01/08 03:19:00;;;;;;;;;;;;;;;;;;;;;
2023/01/08 03:22:28;;;;;;;;;24.75;23.00;;;;;4.95;71.67;101691.66;146614;590;46013;-68
2023/01/08 03:25:23;;;;;;;;;25.75;22.00;;;;;4.90;74.78;101684.31;146697;569;46022;-69
2023/01/08 03:28:31;;;;;;;;;28.00;24.00;;;;;4.89;73.14;101683.41;146611;755;46017;-69
2023/01/08 03:32:05;;;;;;;;;21.25;19.25;;;;;4.84;71.35;101669.25;146609;604;46010;-68
2023/01/08 03:35:02;;;;;;;;;24.25;20.50;;;;;4.89;72.28;101688.56;146609;566;46016;-67
2023/01/08 03:38:25;;;;;;;;;23.75;21.75;;;;;4.80;72.12;101668.06;146611;565;46020;-67
2023/01/08 03:41:24;;;;;;;;;26.00;22.50;;;;;4.86;72.54;101680.56;146607;737;46016;-65
2023/01/08 03:44:30;;;;;;;;;25.25;22.75;;;;;4.84;72.94;101679.53;146612;569;46020;-66
2023/01/08 03:47:42;;;;;;;;;25.75;21.50;;;;;4.83;71.51;101686.34;146608;732;46016;-67
2023/01/08 03:50:38;;;;;;;;;20.00;19.75;;;;;4.83;72.32;101683.78;146611;726;46010;-69
2023/01/08 03:53:32;;;;;;;;;29.00;23.25;;;;;4.82;72.37;101687.09;146607;674;46016;-68
2023/01/08 03:56:31;;;;;;;;;21.50;19.50;;;;;4.83;72.06;101688.00;146607;651;46020;-70
2023/01/08 03:59:29;;;;;;;;;26.00;22.00;;;;;4.80;71.80;101691.19;146608;586;46017;-69
2023/01/08 04:02:30;;;;;;;;;26.75;22.00;;;;;4.78;71.58;101694.41;146611;565;46020;-68
2023/01/08 04:05:25;;;;;;;;;29.00;20.50;;;;;4.73;71.98;101693.97;146608;593;46016;-67
2023/01/08 04:08:17;;;;;;;;;29.75;21.75;;;;;4.74;71.88;101697.47;146611;570;46021;-68
2023/01/08 04:11:13;;;;;;;;;26.00;20.25;;;;;4.78;71.72;101700.44;146605;606;46016;-69
2023/01/08 04:14:24;;;;;;;;;20.50;19.50;;;;;4.79;70.70;101699.66;146611;576;46020;-68
2023/01/08 04:17:29;;;;;;;;;;;;;;;;;;;;;
2023/01/08 04:20:38;;;;;;;;;28.75;23.50;;;;;4.72;70.30;101704.13;146608;579;46020;-65
2023/01/08 04:23:30;;;;;;;;;27.75;22.75;;;;;4.69;71.08;101703.84;146608;596;46017;-68
2023/01/08 04:26:22;;;;;;;;;24.25;23.25;;;;;4.62;71.04;101699.81;146609;716;46010;-69
2023/01/08 04:29:15;;;;;;;;;30.00;27.75;;;;;4.56;71.19;101699.25;146609;622;46016;-67
2023/01/08 04:32:12;;;;;;;;;21.00;19.00;;;;;4.52;71.97;101699.75;146607;569;46020;-68
2023/01/08 04:35:12;;;;;;;;;24.00;19.50;;;;;4.47;72.40;101691.63;146608;563;46016;-67
2023/01/08 04:38:21;;;;;;;;;23.00;20.75;;;;;4.51;71.75;101706.53;146610;592;46010;-68
2023/01/08 04:41:13;;;;;;;;;22.00;20.50;;;;;4.54;72.20;101701.69;146603;573;47010;-67
2023/01/08 04:44:20;;;;;;;;;21.00;18.00;;;;;4.53;72.33;101701.56;146612;569;45021;-70
2023/01/08 04:47:30;;;;;;;;;26.25;19.50;;;;;4.51;71.91;101703.06;146608;573;46016;-69
2023/01/08 04:50:24;;;;;;;;;17.25;16.25;;;;;4.51;72.48;101710.78;146609;631;46010;-69
2023/01/08 04:53:27;;;;;;;;;21.00;17.50;;;;;4.54;72.71;101711.06;146605;608;47012;-69
2023/01/08 04:56:31;;;;;;;;;21.25;20.00;;;;;4.54;71.75;101724.78;146606;573;46010;-67
2023/01/08 04:59:26;;;;;;;;;19.00;16.75;;;;;4.47;73.12;101719.88;146609;608;46016;-67
2023/01/08 05:02:27;;;;;;;;;27.25;20.00;;;;;4.43;72.27;101717.81;146612;618;46020;-70
2023/01/08 05:05:31;;;;;;;;;19.25;16.75;;;;;4.40;73.18;101715.84;146605;612;46012;-69
2023/01/08 05:08:30;;;;;;;;;18.25;14.25;;;;;4.38;73.33;101722.50;146611;666;46010;-67
2023/01/08 05:11:36;;;;;;;;;15.25;13.75;;;;;4.35;72.85;101716.19;146605;586;46016;-68
2023/01/08 05:14:36;;;;;;;;;16.75;14.00;;;;;4.33;72.85;101723.75;146605;602;46021;-69
2023/01/08 05:17:28;;;;;;;;;15.25;15.25;;;;;4.27;73.16;101710.34;146605;593;46915;-67
2023/01/08 05:20:21;;;;;;;;;15.00;13.75;;;;;4.28;73.53;101714.72;146609;572;46020;-68
2023/01/08 05:23:13;;;;;;;;;15.50;13.00;;;;;4.25;73.48;101714.44;146607;585;46016;-67
2023/01/08 05:26:10;;;;;;;;;16.25;13.75;;;;;4.21;74.48;101711.47;146610;600;46010;-67
2023/01/08 05:29:05;;;;;;;;;14.25;12.25;;;;;4.21;73.62;101712.38;146607;621;46016;-66
2023/01/08 05:32:14;;;;;;;;;16.00;13.00;;;;;3.07;73.92;101505.09;146611;611;46010;-72
2023/01/08 05:35:09;;;;;;;;;13.25;13.00;;;;;4.29;74.01;101708.81;146608;597;46013;-70
2023/01/08 05:38:08;;;;;;;;;17.75;15.25;;;;;4.34;74.20;101716.94;146610;593;46010;-68
2023/01/08 05:41:06;;;;;;;;;18.50;14.50;;;;;4.36;73.53;101720.53;146607;613;46012;-69
2023/01/08 05:43:58;;;;;;;;;18.25;16.25;;;;;4.35;73.19;101721.31;146609;575;46010;-69
2023/01/08 05:47:02;;;;;;;;;13.75;12.75;;;;;4.34;73.00;101725.56;146608;581;46016;-69
2023/01/08 05:50:03;;;;;;;;;14.00;13.50;;;;;4.34;73.47;101714.38;146611;610;45021;-68
2023/01/08 05:53:02;;;;;;;;;16.75;15.00;;;;;4.44;73.34;101727.28;146607;580;46014;-68
2023/01/08 05:55:55;;;;;;;;;17.75;14.75;;;;;3.20;73.02;101502.91;146613;630;46020;-67
2023/01/08 05:59:01;;;;;;;;;16.75;14.50;;;;;4.46;73.26;101728.34;146608;592;46012;-68
2023/01/08 06:01:55;;;;;;;;;22.25;16.25;;;;;4.46;73.39;101730.91;146611;621;46020;-67
2023/01/08 06:04:55;;;;;;;;;16.25;13.75;;;;;4.49;74.19;101725.16;146607;651;46017;-68
2023/01/08 06:08:00;;;;;;;;;;;;;;;;;;;;;
2023/01/08 06:10:56;;;;;;;;;16.50;12.50;;;;;4.52;73.30;101723.78;146605;584;46021;-68
2023/01/08 06:14:06;;;;;;;;;17.50;12.25;;;;;4.56;72.53;101718.16;146611;566;46020;-68
2023/01/08 06:17:03;;;;;;;;;18.50;13.75;;;;;4.61;73.43;101719.47;146610;616;46012;-68
2023/01/08 06:19:58;;;;;;;;;20.75;17.50;;;;;4.70;72.47;101723.62;146612;578;45021;-69
2023/01/08 06:23:13;;;;;;;;;;;;;;;;;;;;;
2023/01/08 06:26:20;;;;;;;;;42.75;34.25;;;;;4.74;72.41;101724.06;146612;653;46020;-65
2023/01/08 06:29:16;;;;;;;;;40.25;33.00;;;;;4.71;72.48;101733.16;146605;580;46016;-66
2023/01/08 06:32:15;;;;;;;;;39.00;32.00;;;;;4.73;73.04;101736.75;146611;614;45020;-65
2023/01/08 06:35:19;;;;;;;;;29.75;23.00;;;;;4.74;74.00;101730.88;146607;599;46017;-66
2023/01/08 06:38:12;;;;;;;;;18.50;16.50;;;;;4.84;74.59;101734.38;146610;603;46020;-69
2023/01/08 06:41:11;;;;;;;;;18.25;12.75;;;;;5.41;76.20;101733.38;146605;564;46016;-67
2023/01/08 06:44:13;;;;;;;;;16.50;14.75;;;;;6.49;78.78;101728.97;146612;602;46020;-69
2023/01/08 06:47:10;;;;;;;;;19.25;16.50;;;;;7.59;72.62;101729.28;146606;578;46016;-67
2023/01/08 06:50:02;;;;;;;;;15.50;13.50;;;;;8.30;69.67;101736.56;146610;584;46021;-69
2023/01/08 06:52:59;;;;;;;;;18.50;16.75;;;;;8.90;66.68;101729.84;146610;602;46016;-70
2023/01/08 06:55:57;;;;;;;;;18.00;15.25;;;;;9.42;63.80;101729.38;146611;587;46020;-68
2023/01/08 06:58:54;;;;;;;;;22.25;17.50;;;;;9.84;63.73;101721.94;146608;588;46918;-67
2023/01/08 07:01:33;;;;;;;;;21.75;17.25;;;;;10.25;62.00;101723.91;146710;564;46014;-66
2023/01/08 07:04:34;;;;;;;;;20.00;16.25;;;;;10.78;60.90;101722.38;146619;604;46012;-67
2023/01/08 07:07:26;;;;;;;;;25.25;18.75;;;;;11.36;60.39;101725.25;146622;648;46010;-66
2023/01/08 07:10:20;;;;;;;;;23.50;19.25;;;;;11.93;58.27;101723.66;146617;563;46919;-67
2023/01/08 07:13:30;;;;;;;;;19.50;17.00;;;;;11.50;57.36;101546.94;146623;636;46010;-68
2023/01/08 07:16:23;;;;;;;;;22.25;18.00;;;;;13.20;55.21;101727.66;146618;576;46013;-69
2023/01/08 07:19:25;;;;;;;;;23.75;21.75;;;;;13.77;53.21;101726.53;146624;595;45020;-68
2023/01/08 07:22:26;;;;;;;;;26.75;22.50;;;;;14.11;50.93;101724.00;146618;597;46016;-68
2023/01/08 07:25:33;;;;;;;;;33.75;26.75;;;;;14.32;50.72;101727.75;146623;576;46010;-67
2023/01/08 07:28:32;;;;;;;;;24.75;22.25;;;;;14.51;49.53;101734.84;146618;694;46919;-68
2023/01/08 07:31:27;;;;;;;;;34.75;29.25;;;;;14.68;50.09;101733.09;146622;634;46011;-67
2023/01/08 07:34:19;;;;;;;;;47.50;38.50;;;;;15.05;49.29;101727.09;146617;611;46016;-68
2023/01/08 07:37:11;;;;;;;;;46.75;37.00;;;;;15.35;49.20;101727.66;146622;627;46020;-69
2023/01/08 07:40:27;;;;;;;;;49.75;41.25;;;;;15.58;47.11;101734.00;146618;633;46014;-69
2023/01/08 07:43:34;;;;;;;;;;;;;;;;;;;;;
2023/01/08 07:46:29;;;;;;;;;51.75;40.75;;;;;15.34;45.83;101740.69;146618;575;47012;-66
2023/01/08 07:49:28;;;;;;;;;49.25;37.75;;;;;14.98;46.82;101738.06;146620;566;46020;-67
2023/01/08 07:52:22;;;;;;;;;47.50;36.50;;;;;14.60;47.39;101739.63;146613;697;47015;-69
2023/01/08 07:55:30;;;;;;;;;51.50;38.50;;;;;14.21;48.61;101739.34;146620;570;46021;-69
2023/01/08 07:58:22;;;;;;;;;47.00;38.25;;;;;13.82;49.20;101741.59;146614;620;46012;-66
2023/01/08 08:01:17;;;;;;;;;47.25;37.25;;;;;13.47;50.21;101738.78;146616;633;48010;-67
2023/01/08 08:04:10;;;;;;;;;45.25;36.25;;;;;12.08;51.90;101537.41;146618;600;46012;-66
2023/01/08 08:07:09;;;;;;;;;55.25;42.50;;;;;13.22;52.73;101741.69;146621;618;46020;-69
2023/01/08 08:10:01;;;;;;;;;51.50;43.25;;;;;13.20;52.27;101725.97;146618;604;46017;-66
2023/01/08 08:13:15;;;;;;;;;52.25;41.25;;;;;13.29;53.57;101736.94;146621;669;46020;-66
2023/01/08 08:16:14;;;;;;;;;52.25;42.25;;;;;13.37;53.33;101742.59;146615;600;46919;-66
2023/01/08 08:19:32;;;;;;;;;54.50;42.75;;;;;13.46;53.68;101745.72;146621;587;46020;-67
2023/01/08 08:22:27;;;;;;;;;55.00;43.75;;;;;13.52;53.21;101737.31;146615;580;46017;-66
2023/01/08 08:25:27;;;;;;;;;49.25;40.25;;;;;13.59;53.39;101736.84;146623;603;46010;-67
2023/01/08 08:28:24;;;;;;;;;47.50;37.75;;;;;13.53;52.88;101744.34;146618;617;46016;-67
2023/01/08 08:31:17;;;;;;;;;49.50;38.25;;;;;13.49;53.86;101744.97;146620;595;46012;-67
2023/01/08 08:34:13;;;;;;;;;45.50;35.50;;;;;13.48;53.86;101736.25;146617;661;46016;-66
2023/01/08 08:37:08;;;;;;;;;45.00;37.00;;;;;13.51;53.57;101738.13;146623;653;46010;-66
2023/01/08 08:40:08;;;;;;;;;40.00;34.00;;;;;13.45;53.74;101737.78;146618;631;46916;-66
2023/01/08 08:43:04;;;;;;;;;37.25;31.50;;;;;13.39;53.68;101744.47;146695;570;46003;-66
2023/01/08 08:46:00;;;;;;;;;94.67;79.00;;;;;13.39;54.76;101738.34;146617;577;46012;-65
2023/01/08 08:49:07;;;;;;;;;43.50;35.00;;;;;13.44;54.40;101733.41;146613;582;46020;-65
2023/01/08 08:52:03;;;;;;;;;59.00;45.25;;;;;13.55;53.93;101727.97;146612;563;46012;-66
2023/01/08 08:55:11;;;;;;;;;51.50;38.00;;;;;13.66;54.10;101735.47;146613;612;46021;-65
2023/01/08 08:58:17;;;;;;;;;53.50;40.75;;;;;13.82;54.84;101728.56;146609;587;46016;-65
2023/01/08 09:01:17;;;;;;;;;51.25;41.75;;;;;14.03;54.96;101728.84;146613;571;46021;-65
2023/01/08 09:04:15;;;;;;;;;50.75;41.00;;;;;14.27;53.74;101723.12;146610;575;46012;-66
2023/01/08 09:07:08;;;;;;;;;53.00;41.75;;;;;14.50;53.19;101717.34;146612;578;46020;-65
2023/01/08 09:10:00;;;;;;;;;52.00;40.75;;;;;14.73;53.75;101721.16;146611;616;46920;-66
2023/01/08 09:13:01;;;;;;;;;47.25;38.75;;;;;14.94;51.56;101717.84;146614;573;46020;-66
2023/01/08 09:15:56;;;;;;;;;49.75;35.00;;;;;15.02;51.11;101713.91;146610;651;46016;-66
2023/01/08 09:18:52;;;;;;;;;48.00;37.25;;;;;15.08;51.24;101710.66;146613;571;46020;-66
2023/01/08 09:21:47;;;;;;;;;42.25;34.25;;;;;15.14;51.05;101700.50;146610;577;46016;-67
2023/01/08 09:24:47;;;;;;;;;29.50;28.75;;;;;15.25;49.98;101709.78;146613;569;46012;-66
2023/01/08 09:27:42;;;;;;;;;35.25;31.00;;;;;15.26;50.25;101706.31;146609;563;46016;-66
2023/01/08 09:30:44;;;;;;;;;35.25;32.00;;;;;15.25;51.06;101697.59;146614;570;46020;-66
2023/01/08 09:33:45;;;;;;;;;36.75;31.50;;;;;15.36;50.90;101699.84;146610;602;46016;-66
2023/01/08 09:36:42;;;;;;;;;29.50;27.25;;;;;15.49;50.03;101691.75;146614;667;46020;-66
2023/01/08 09:39:35;;;;;;;;;31.00;27.75;;;;;15.52;49.68;101691.91;146610;597;46012;-66
2023/01/08 09:42:36;;;;;;;;;34.00;30.50;;;;;15.57;49.67;101685.13;146620;589;46010;-66
2023/01/08 09:45:39;;;;;;;;;33.50;29.75;;;;;14.46;51.19;101470.13;146617;564;46016;-65
2023/01/08 09:48:50;;;;;;;;;39.50;31.75;;;;;15.74;49.21;101674.63;146620;579;46010;-65
2023/01/08 09:52:06;;;;;;;;;;;;;;;;;;;;;
2023/01/08 09:55:04;;;;;;;;;39.00;31.50;;;;;15.90;49.56;101671.84;146618;587;46021;-65
2023/01/08 09:58:33;;;;;;;;;38.50;33.75;;;;;14.82;51.60;101437.84;146616;570;46012;-65
2023/01/08 10:01:46;;;;;;;;;39.75;34.00;;;;;13.96;49.89;101248.69;146621;648;46010;-65
2023/01/08 10:04:46;;;;;;;;;38.75;34.00;;;;;16.32;48.68;101649.28;146617;660;46016;-68
2023/01/08 10:07:49;;;;;;;;;;;;;;;;;;;;;
2023/01/08 10:10:46;;;;;;;;;39.00;33.25;;;;;16.28;47.43;101633.37;146614;644;46027;-69
2023/01/08 10:13:45;;;;;;;;;29.25;27.75;;;;;15.31;47.53;101461.81;146616;566;47010;-69
2023/01/08 10:17:22;;;;;;;;;28.50;26.50;;;;;15.00;49.66;101399.50;146616;591;46013;-70
2023/01/08 10:20:25;;;;;;;;;27.50;24.25;;;;;16.47;48.34;101642.91;146618;570;46020;-70
2023/01/08 10:24:00;;;;;;;;;37.25;32.25;;;;;15.28;49.61;101403.31;146616;592;46917;-69
2023/01/08 10:27:13;;;;;;;;;33.50;30.00;;;;;16.73;48.06;101633.50;146619;575;46010;-70
2023/01/08 10:30:18;;;;;;;;;45.00;34.50;;;;;16.81;46.97;101627.78;146619;635;46013;-68
2023/01/08 10:33:27;;;;;;;;;21.50;20.75;;;;;16.85;47.41;101626.16;146619;577;46029;-70
2023/01/08 10:36:22;;;;;;;;;28.75;24.50;;;;;16.96;47.08;101624.00;146615;658;46016;-69
2023/01/08 10:39:34;;;;;;;;;29.75;28.75;;;;;17.11;48.45;101613.22;146614;742;46917;-70
2023/01/08 10:42:29;;;;;;;;;35.25;30.00;;;;;17.14;45.88;101608.09;146616;574;46014;-69
2023/01/08 10:45:48;;;;;;;;;;;;;;;;;;;;;
2023/01/08 10:49:19;;;;;;;;;26.25;23.75;;;;;15.86;48.56;101363.97;146612;605;46915;-69
2023/01/08 10:52:53;;;;;;;;;26.50;24.00;;;;;16.10;49.41;101371.84;146619;594;46020;-68
2023/01/08 10:55:51;;;;;;;;;18.25;16.25;;;;;17.54;44.03;101595.66;146617;597;46016;-68
2023/01/08 10:58:53;;;;;;;;;22.75;20.25;;;;;17.57;45.00;101597.50;146621;575;46010;-68
2023/01/08 11:02:01;;;;;;;;;21.25;18.00;;;;;17.54;46.96;101592.13;146616;578;46017;-69
2023/01/08 11:05:06;;;;;;;;;17.50;15.25;;;;;17.58;45.16;101586.16;146622;569;46010;-68
2023/01/08 11:08:13;;;;;;;;;16.25;13.50;;;;;17.62;44.58;101589.78;146618;596;46012;-68
2023/01/08 11:11:21;;;;;;;;;;;;;;;;;;;;;
2023/01/08 11:14:39;;;;;;;;;19.75;15.50;;;;;14.15;47.69;101016.59;146615;594;46018;-68
2023/01/08 11:17:44;;;;;;;;;18.75;16.00;;;;;17.44;45.00;101588.25;146621;602;46012;-68
2023/01/08 11:20:49;;;;;;;;;20.25;19.25;;;;;17.45;45.25;101578.69;146619;619;46012;-67
2023/01/08 11:23:48;;;;;;;;;19.00;17.50;;;;;17.46;44.39;101581.34;146617;581;46021;-69
2023/01/08 11:26:43;;;;;;;;;25.25;20.50;;;;;17.44;45.14;101577.78;146616;618;46016;-69
2023/01/08 11:29:56;;;;;;;;;17.00;14.25;;;;;17.49;46.04;101576.22;146619;579;45024;-68
2023/01/08 11:33:28;;;;;;;;;25.75;22.50;;;;;16.15;47.12;101331.06;146617;572;46012;-69
2023/01/08 11:36:50;;;;;;;;;18.25;15.00;;;;;16.18;48.91;101346.91;146618;564;46011;-68
2023/01/08 11:39:48;;;;;;;;;15.75;13.50;;;;;17.45;45.28;101561.22;146616;611;46016;-67
2023/01/08 11:43:18;;;;;;;;;12.75;12.75;;;;;17.41;46.07;101561.94;146614;607;46010;-68
2023/01/08 11:46:41;;;;;;;;;14.75;13.00;;;;;17.42;45.99;101565.47;146610;649;46016;-68
2023/01/08 11:50:23;;;;;;;;;13.00;10.50;;;;;16.05;47.30;101328.94;146614;636;46020;-68
2023/01/08 11:54:05;;;;;;;;;16.00;14.00;;;;;15.43;47.13;101201.03;146611;593;46016;-68
2023/01/08 11:57:37;;;;;;;;;14.25;12.75;;;;;17.57;45.50;101547.69;146614;578;46012;-68
2023/01/08 12:01:09;;;;;;;;;21.75;18.75;;;;;17.68;47.09;101550.66;146610;683;46018;-68
2023/01/08 12:04:40;;;;;;;;;12.75;11.00;;;;;17.77;44.73;101545.78;146614;626;46010;-68
2023/01/08 12:08:10;;;;;;;;;13.00;12.00;;;;;17.73;44.92;101536.00;146611;730;46016;-68
2023/01/08 12:11:53;;;;;;;;;13.75;13.25;;;;;17.67;46.46;101530.53;146612;596;46020;-68
2023/01/08 12:15:18;;;;;;;;;16.00;13.00;;;;;17.73;45.35;101529.00;146611;615;46035;-68
2023/01/08 12:19:05;;;;;;;;;21.25;15.50;;;;;17.80;46.20;101524.91;146611;602;46031;-68
2023/01/08 12:22:46;;;;;;;;;14.25;13.00;;;;;17.94;46.77;101522.72;146611;576;46017;-68
2023/01/08 12:26:06;;;;;;;;;19.00;16.75;;;;;18.11;45.50;101518.06;146613;579;46010;-67
2023/01/08 12:29:40;;;;;;;;;10.50;8.50;;;;;18.30;45.41;101507.31;146611;572;46018;-68
2023/01/08 12:32:43;;;;;;;;;7.50;6.75;;;;;18.34;42.29;101505.69;146619;576;46020;-69
2023/01/08 12:36:13;;;;;;;;;12.25;11.75;;;;;18.32;43.61;101515.25;146615;610;46016;-68
2023/01/08 12:39:20;;;;;;;;;17.25;14.50;;;;;18.37;44.48;101504.03;146617;570;45049;-68
2023/01/08 12:42:23;;;;;;;;;11.50;10.25;;;;;18.40;42.82;101513.75;146613;593;46014;-68
2023/01/08 12:45:53;;;;;;;;;17.50;15.00;;;;;18.01;46.88;101448.66;146621;565;46010;-67
2023/01/08 12:49:16;;;;;;;;;19.50;19.25;;;;;16.12;45.78;101125.16;146617;584;46012;-68
2023/01/08 12:52:35;;;;;;;;;19.00;15.25;;;;;18.48;44.06;101514.00;146618;601;47008;-68
2023/01/08 12:55:59;;;;;;;;;17.50;14.50;;;;;18.55;44.24;101508.97;146617;563;46014;-69
2023/01/08 12:59:56;;;;;;;;;19.00;14.25;;;;;17.34;45.65;101310.91;146619;577;46010;-69
2023/01/08 13:03:25;;;;;;;;;9.75;7.50;;;;;18.69;46.28;101512.03;146616;754;47012;-67
2023/01/08 13:06:31;;;;;;;;;13.50;13.50;;;;;18.79;44.75;101513.25;146623;567;46020;-67
2023/01/08 13:09:40;;;;;;;;;14.75;13.75;;;;;18.86;45.11;101505.59;146612;601;46014;-67
2023/01/08 13:12:54;;;;;;;;;13.50;12.75;;;;;18.91;44.08;101508.37;146620;574;46013;-67
2023/01/08 13:16:00;;;;;;;;;12.00;12.00;;;;;19.03;42.38;101502.56;146615;602;46918;-67
2023/01/08 13:19:08;;;;;;;;;15.00;13.00;;;;;19.16;45.63;101507.34;146622;564;46010;-67
2023/01/08 13:22:30;;;;;;;;;13.25;11.50;;;;;19.37;45.34;101502.66;146615;575;46017;-68
2023/01/08 13:25:47;;;;;;;;;15.25;13.00;;;;;19.59;44.33;101498.91;146618;578;46012;-69
2023/01/08 13:29:08;;;;;;;;;15.25;14.75;;;;;17.60;43.92;101099.38;146616;594;46917;-68
2023/01/08 13:32:52;;;;;;;;;11.75;10.75;;;;;19.99;46.07;101488.53;146620;586;46020;-69
2023/01/08 13:35:53;;;;;;;;;13.25;10.75;;;;;19.00;42.53;101307.97;146609;642;48915;-68
2023/01/08 13:39:05;;;;;;;;;18.50;17.50;;;;;20.19;42.63;101491.66;146619;605;46010;-69
2023/01/08 13:42:23;;;;;;;;;18.50;17.50;;;;;20.23;44.52;101493.50;146617;618;46016;-69
2023/01/08 13:45:22;;;;;;;;;19.75;17.00;;;;;20.23;41.80;101499.66;146618;622;46020;-69
2023/01/08 13:48:55;;;;;;;;;18.50;16.00;;;;;20.24;45.63;101521.63;146618;569;46016;-68
2023/01/08 13:52:01;;;;;;;;;12.00;12.00;;;;;20.19;43.04;101496.94;146620;620;46021;-70
2023/01/08 13:55:09;;;;;;;;;15.75;13.75;;;;;19.85;43.36;101496.09;146612;572;46016;-68
2023/01/08 13:58:26;;;;;;;;;15.75;14.50;;;;;19.62;45.60;101499.00;146615;599;46012;-69
2023/01/08 14:02:02;;;;;;;;;11.75;11.75;;;;;18.31;47.36;101275.44;146617;569;46012;-68
2023/01/08 14:05:02;;;;;;;;;12.75;10.00;;;;;19.60;45.22;101494.53;146618;645;46020;-68
2023/01/08 14:08:06;;;;;;;;;14.50;14.25;;;;;19.57;45.08;101504.97;146616;587;46014;-68
2023/01/08 14:11:01;;;;;;;;;13.75;11.50;;;;;19.57;45.19;101504.97;146621;640;46020;-68
2023/01/08 14:14:03;;;;;;;;;14.00;12.75;;;;;19.55;46.83;101499.66;146620;579;45017;-68
2023/01/08 14:17:13;;;;;;;;;10.25;9.75;;;;;19.47;47.21;101510.81;146618;569;46020;-69
2023/01/08 14:20:24;;;;;;;;;15.25;13.75;;;;;19.34;48.09;101505.22;146620;648;46012;-68
2023/01/08 14:23:42;;;;;;;;;;;;;;;;;;;;;
2023/01/08 14:26:52;;;;;;;;;;;;;;;;;;;;;
2023/01/08 14:29:48;;;;;;;;;20.00;17.75;;;;;19.32;46.51;101498.16;146621;569;46021;-68
2023/01/08 14:32:47;;;;;;;;;23.50;20.50;;;;;19.07;47.15;101500.09;146618;609;46012;-69